sensor_id;sensor_type;location;lat;lon;timestamp;pressure;altitude;pressure_sealevel;temperature;humidity
41862;BME280;27537;57.134;-2.136;2023-04-08T00:01:41;101880.59;;;8.30;100.00
41862;BME280;27537;57.134;-2.136;2023-04-08T00:04:08;101875.66;;;8.02;100.00
41862;BME280;27537;57.134;-2.136;2023-04-08T00:06:35;101887.69;;;8.15;100.00
41862;BME280;27537;57.134;-2.136;2023-04-08T00:09:02;101912.88;;;8.20;100.00
41862;BME280;27537;57.134;-2.136;2023-04-08T00:11:29;101934.34;;;8.52;100.00
41862;BME280;27537;57.134;-2.136;2023-04-08T00:13:56;101900.53;;;8.43;100.00
41862;BME280;27537;57.134;-2.136;2023-04-08T00:16:23;101911.97;;;8.25;100.00
41862;BME280;27537;57.134;-2.136;2023-04-08T00:18:50;101874.66;;;8.12;100.00
41862;BME280;27537;57.134;-2.136;2023-04-08T00:21:17;101887.66;;;8.22;100.00
41862;BME280;27537;57.134;-2.136;2023-04-08T00:23:46;101873.84;;;8.07;100.00
41862;BME280;27537;57.134;-2.136;2023-04-08T00:26:13;101867.00;;;7.97;100.00
41862;BME280;27537;57.134;-2.136;2023-04-08T00:28:40;101899.81;;;8.21;100.00
41862;BME280;27537;57.134;-2.136;2023-04-08T00:31:08;101942.16;;;8.54;100.00
41862;BME280;27537;57.134;-2.136;2023-04-08T00:33:35;101905.09;;;8.16;100.00
41862;BME280;27537;57.134;-2.136;2023-04-08T00:36:02;101908.53;;;8.18;100.00
41862;BME280;27537;57.134;-2.136;2023-04-08T00:38:29;101918.81;;;8.35;100.00
41862;BME280;27537;57.134;-2.136;2023-04-08T00:40:56;101898.00;;;8.29;100.00
41862;BME280;27537;57.134;-2.136;2023-04-08T00:43:24;101923.19;;;8.32;100.00
41862;BME280;27537;57.134;-2.136;2023-04-08T00:45:50;101893.00;;;8.06;100.00
41862;BME280;27537;57.134;-2.136;2023-04-08T00:48:17;101922.44;;;8.19;100.00
41862;BME280;27537;57.134;-2.136;2023-04-08T00:50:44;101875.50;;;8.17;100.00
41862;BME280;27537;57.134;-2.136;2023-04-08T00:53:18;101913.78;;;8.15;100.00
41862;BME280;27537;57.134;-2.136;2023-04-08T00:55:44;101924.34;;;8.00;100.00
41862;BME280;27537;57.134;-2.136;2023-04-08T00:58:12;101886.97;;;7.96;100.00
41862;BME280;27537;57.134;-2.136;2023-04-08T01:00:43;101878.19;;;8.07;100.00
41862;BME280;27537;57.134;-2.136;2023-04-08T01:03:24;101926.63;;;8.39;100.00
41862;BME280;27537;57.134;-2.136;2023-04-08T01:08:47;101914.41;;;8.41;100.00
41862;BME280;27537;57.134;-2.136;2023-04-08T01:11:15;101908.47;;;8.26;100.00
41862;BME280;27537;57.134;-2.136;2023-04-08T01:13:44;101911.81;;;8.42;100.00
41862;BME280;27537;57.134;-2.136;2023-04-08T01:16:13;101943.81;;;8.63;100.00
41862;BME280;27537;57.134;-2.136;2023-04-08T01:18:42;101899.13;;;8.02;100.00
41862;BME280;27537;57.134;-2.136;2023-04-08T01:21:10;101905.97;;;8.11;100.00
41862;BME280;27537;57.134;-2.136;2023-04-08T01:23:45;101916.19;;;8.35;100.00
41862;BME280;27537;57.134;-2.136;2023-04-08T01:26:22;101939.84;;;8.17;100.00
41862;BME280;27537;57.134;-2.136;2023-04-08T01:28:55;101955.50;;;8.17;100.00
41862;BME280;27537;57.134;-2.136;2023-04-08T01:31:23;101947.69;;;8.18;100.00
41862;BME280;27537;57.134;-2.136;2023-04-08T01:33:51;101911.34;;;7.94;100.00
41862;BME280;27537;57.134;-2.136;2023-04-08T01:36:19;101885.31;;;7.88;100.00
41862;BME280;27537;57.134;-2.136;2023-04-08T01:38:47;101906.22;;;7.85;100.00
41862;BME280;27537;57.134;-2.136;2023-04-08T01:41:16;101945.25;;;7.97;100.00
41862;BME280;27537;57.134;-2.136;2023-04-08T01:43:44;101958.13;;;8.14;100.00
41862;BME280;27537;57.134;-2.136;2023-04-08T01:46:12;101908.72;;;7.98;100.00
41862;BME280;27537;57.134;-2.136;2023-04-08T01:48:40;101929.53;;;8.03;100.00
41862;BME280;27537;57.134;-2.136;2023-04-08T01:51:08;101910.44;;;7.99;100.00
41862;BME280;27537;57.134;-2.136;2023-04-08T01:53:36;101956.38;;;8.16;100.00
41862;BME280;27537;57.134;-2.136;2023-04-08T01:56:11;101964.16;;;8.22;100.00
41862;BME280;27537;57.134;-2.136;2023-04-08T01:58:45;101948.84;;;7.77;100.00
41862;BME280;27537;57.134;-2.136;2023-04-08T02:01:16;101902.72;;;7.84;100.00
41862;BME280;27537;57.134;-2.136;2023-04-08T02:03:45;101918.44;;;7.75;100.00
41862;BME280;27537;57.134;-2.136;2023-04-08T02:06:13;101911.47;;;7.77;100.00
41862;BME280;27537;57.134;-2.136;2023-04-08T02:08:40;101948.00;;;7.74;100.00
41862;BME280;27537;57.134;-2.136;2023-04-08T02:11:06;101908.09;;;7.64;100.00
41862;BME280;27537;57.134;-2.136;2023-04-08T02:13:33;101908.84;;;7.80;100.00
41862;BME280;27537;57.134;-2.136;2023-04-08T02:16:09;101914.94;;;7.79;100.00
41862;BME280;27537;57.134;-2.136;2023-04-08T02:18:45;101928.03;;;7.71;100.00
41862;BME280;27537;57.134;-2.136;2023-04-08T02:21:19;101925.31;;;7.85;100.00
41862;BME280;27537;57.134;-2.136;2023-04-08T02:23:49;101927.84;;;7.96;100.00
41862;BME280;27537;57.134;-2.136;2023-04-08T02:26:17;101957.94;;;8.37;100.00
41862;BME280;27537;57.134;-2.136;2023-04-08T02:28:47;101931.22;;;8.09;100.00
41862;BME280;27537;57.134;-2.136;2023-04-08T02:31:16;101928.59;;;8.09;100.00
41862;BME280;27537;57.134;-2.136;2023-04-08T02:33:44;101889.81;;;7.67;100.00
41862;BME280;27537;57.134;-2.136;2023-04-08T02:36:13;101933.06;;;7.97;100.00
41862;BME280;27537;57.134;-2.136;2023-04-08T02:38:40;101963.16;;;8.35;100.00
41862;BME280;27537;57.134;-2.136;2023-04-08T02:41:07;101900.41;;;7.46;100.00
41862;BME280;27537;57.134;-2.136;2023-04-08T02:43:33;101928.00;;;7.76;100.00
41862;BME280;27537;57.134;-2.136;2023-04-08T02:46:00;101967.81;;;8.03;100.00
41862;BME280;27537;57.134;-2.136;2023-04-08T02:48:30;101939.28;;;7.78;100.00
41862;BME280;27537;57.134;-2.136;2023-04-08T02:50:57;101895.06;;;7.66;100.00
41862;BME280;27537;57.134;-2.136;2023-04-08T02:53:24;101947.09;;;7.83;100.00
41862;BME280;27537;57.134;-2.136;2023-04-08T02:55:51;101991.28;;;7.98;100.00
41862;BME280;27537;57.134;-2.136;2023-04-08T02:58:18;101979.09;;;8.00;100.00
41862;BME280;27537;57.134;-2.136;2023-04-08T03:00:44;101960.72;;;8.22;100.00
41862;BME280;27537;57.134;-2.136;2023-04-08T03:03:11;101960.72;;;8.22;100.00
41862;BME280;27537;57.134;-2.136;2023-04-08T03:05:38;101962.38;;;8.29;100.00
41862;BME280;27537;57.134;-2.136;2023-04-08T03:08:05;101942.66;;;7.95;100.00
41862;BME280;27537;57.134;-2.136;2023-04-08T03:10:32;101888.00;;;7.80;100.00
41862;BME280;27537;57.134;-2.136;2023-04-08T03:12:59;101902.75;;;7.83;100.00
41862;BME280;27537;57.134;-2.136;2023-04-08T03:15:26;101913.22;;;7.79;100.00
41862;BME280;27537;57.134;-2.136;2023-04-08T03:17:52;101943.53;;;7.91;100.00
41862;BME280;27537;57.134;-2.136;2023-04-08T03:20:19;101892.44;;;7.67;100.00
41862;BME280;27537;57.134;-2.136;2023-04-08T03:22:46;101943.59;;;7.80;100.00
41862;BME280;27537;57.134;-2.136;2023-04-08T03:25:13;101931.47;;;7.76;100.00
41862;BME280;27537;57.134;-2.136;2023-04-08T03:27:39;101914.06;;;7.82;100.00
41862;BME280;27537;57.134;-2.136;2023-04-08T03:30:07;101937.38;;;8.00;100.00
41862;BME280;27537;57.134;-2.136;2023-04-08T03:32:34;101934.75;;;8.02;100.00
41862;BME280;27537;57.134;-2.136;2023-04-08T03:35:01;101926.25;;;7.76;100.00
41862;BME280;27537;57.134;-2.136;2023-04-08T03:37:28;101944.50;;;7.78;100.00
41862;BME280;27537;57.134;-2.136;2023-04-08T03:39:54;101947.03;;;7.87;100.00
41862;BME280;27537;57.134;-2.136;2023-04-08T03:42:21;101922.75;;;7.80;100.00
41862;BME280;27537;57.134;-2.136;2023-04-08T03:44:48;101983.44;;;8.03;100.00
41862;BME280;27537;57.134;-2.136;2023-04-08T03:47:15;101973.97;;;7.91;100.00
41862;BME280;27537;57.134;-2.136;2023-04-08T03:49:42;101928.09;;;7.62;100.00
41862;BME280;27537;57.134;-2.136;2023-04-08T03:52:09;101919.44;;;7.58;100.00
41862;BME280;27537;57.134;-2.136;2023-04-08T03:54:35;101976.56;;;7.88;100.00
41862;BME280;27537;57.134;-2.136;2023-04-08T03:57:02;101957.47;;;7.87;100.00
41862;BME280;27537;57.134;-2.136;2023-04-08T03:59:29;101898.50;;;7.65;100.00
41862;BME280;27537;57.134;-2.136;2023-04-08T04:01:56;101950.47;;;7.97;100.00
41862;BME280;27537;57.134;-2.136;2023-04-08T04:04:23;101954.00;;;7.87;100.00
41862;BME280;27537;57.134;-2.136;2023-04-08T04:06:50;101996.50;;;8.04;100.00
41862;BME280;27537;57.134;-2.136;2023-04-08T04:09:17;101954.84;;;7.92;100.00
41862;BME280;27537;57.134;-2.136;2023-04-08T04:11:44;101980.84;;;8.03;100.00
41862;BME280;27537;57.134;-2.136;2023-04-08T04:14:11;101945.19;;;8.02;100.00
41862;BME280;27537;57.134;-2.136;2023-04-08T04:16:37;101921.13;;;7.64;100.00
41862;BME280;27537;57.134;-2.136;2023-04-08T04:19:04;101956.50;;;8.02;100.00
41862;BME280;27537;57.134;-2.136;2023-04-08T04:21:31;101957.53;;;7.78;100.00
41862;BME280;27537;57.134;-2.136;2023-04-08T04:23:58;101940.88;;;7.97;100.00
41862;BME280;27537;57.134;-2.136;2023-04-08T04:26:24;101921.03;;;7.81;100.00
41862;BME280;27537;57.134;-2.136;2023-04-08T04:28:51;101965.19;;;8.04;100.00
41862;BME280;27537;57.134;-2.136;2023-04-08T04:31:23;101930.53;;;7.87;100.00
41862;BME280;27537;57.134;-2.136;2023-04-08T04:33:52;101942.66;;;7.95;100.00
41862;BME280;27537;57.134;-2.136;2023-04-08T04:36:18;101914.03;;;7.86;100.00
41862;BME280;27537;57.134;-2.136;2023-04-08T04:38:45;101948.72;;;7.96;100.00
41862;BME280;27537;57.134;-2.136;2023-04-08T04:41:15;101935.78;;;7.82;100.00
41862;BME280;27537;57.134;-2.136;2023-04-08T04:43:42;101941.91;;;7.75;100.00
41862;BME280;27537;57.134;-2.136;2023-04-08T04:46:09;101977.50;;;7.80;100.00
41862;BME280;27537;57.134;-2.136;2023-04-08T04:48:36;101940.16;;;7.75;100.00
41862;BME280;27537;57.134;-2.136;2023-04-08T04:51:03;101962.59;;;7.99;100.00
41862;BME280;27537;57.134;-2.136;2023-04-08T04:53:30;101998.19;;;8.11;100.00
41862;BME280;27537;57.134;-2.136;2023-04-08T04:55:57;101987.66;;;8.22;100.00
41862;BME280;27537;57.134;-2.136;2023-04-08T04:58:24;101976.41;;;8.14;100.00
41862;BME280;27537;57.134;-2.136;2023-04-08T05:00:51;101952.22;;;7.92;100.00
41862;BME280;27537;57.134;-2.136;2023-04-08T05:03:17;101944.41;;;7.89;100.00
41862;BME280;27537;57.134;-2.136;2023-04-08T05:05:44;101974.72;;;8.04;100.00
41862;BME280;27537;57.134;-2.136;2023-04-08T05:08:11;101947.91;;;7.88;100.00
41862;BME280;27537;57.134;-2.136;2023-04-08T05:10:39;101953.06;;;7.97;100.00
41862;BME280;27537;57.134;-2.136;2023-04-08T05:13:06;101986.03;;;8.06;100.00
41862;BME280;27537;57.134;-2.136;2023-04-08T05:15:34;101992.97;;;8.08;100.00
41862;BME280;27537;57.134;-2.136;2023-04-08T05:18:01;101971.44;;;7.80;100.00
41862;BME280;27537;57.134;-2.136;2023-04-08T05:20:27;101984.22;;;8.14;100.00
41862;BME280;27537;57.134;-2.136;2023-04-08T05:22:55;101919.28;;;7.77;100.00
41862;BME280;27537;57.134;-2.136;2023-04-08T05:25:21;101978.31;;;7.89;100.00
41862;BME280;27537;57.134;-2.136;2023-04-08T05:27:48;101990.59;;;7.73;100.00
41862;BME280;27537;57.134;-2.136;2023-04-08T05:30:15;101994.97;;;7.66;100.00
41862;BME280;27537;57.134;-2.136;2023-04-08T05:32:42;101996.66;;;7.76;100.00
41862;BME280;27537;57.134;-2.136;2023-04-08T05:35:09;101990.50;;;7.87;100.00
41862;BME280;27537;57.134;-2.136;2023-04-08T05:37:35;101997.50;;;7.82;100.00
41862;BME280;27537;57.134;-2.136;2023-04-08T05:40:02;102029.56;;;7.91;100.00
41862;BME280;27537;57.134;-2.136;2023-04-08T05:42:29;101994.06;;;7.73;100.00
41862;BME280;27537;57.134;-2.136;2023-04-08T05:44:57;101974.09;;;7.68;100.00
41862;BME280;27537;57.134;-2.136;2023-04-08T05:47:24;102008.63;;;8.04;100.00
41862;BME280;27537;57.134;-2.136;2023-04-08T05:49:51;102026.94;;;7.97;100.00
41862;BME280;27537;57.134;-2.136;2023-04-08T05:52:18;101974.13;;;7.63;100.00
41862;BME280;27537;57.134;-2.136;2023-04-08T05:54:45;101982.84;;;7.59;100.00
41862;BME280;27537;57.134;-2.136;2023-04-08T05:57:12;101953.25;;;7.63;100.00
41862;BME280;27537;57.134;-2.136;2023-04-08T05:59:38;101952.50;;;7.47;100.00
41862;BME280;27537;57.134;-2.136;2023-04-08T06:02:06;101992.28;;;7.80;100.00
41862;BME280;27537;57.134;-2.136;2023-04-08T06:04:33;102034.78;;;7.97;100.00
41862;BME280;27537;57.134;-2.136;2023-04-08T06:06:59;101975.00;;;7.67;100.00
41862;BME280;27537;57.134;-2.136;2023-04-08T06:09:33;102010.53;;;7.78;100.00
41862;BME280;27537;57.134;-2.136;2023-04-08T06:11:59;102011.38;;;7.82;100.00
41862;BME280;27537;57.134;-2.136;2023-04-08T06:14:26;102013.16;;;7.77;100.00
41862;BME280;27537;57.134;-2.136;2023-04-08T06:16:53;101963.78;;;7.48;100.00
41862;BME280;27537;57.134;-2.136;2023-04-08T06:19:23;102011.50;;;7.65;100.00
41862;BME280;27537;57.134;-2.136;2023-04-08T06:21:50;102049.59;;;7.88;100.00
41862;BME280;27537;57.134;-2.136;2023-04-08T06:24:17;102028.00;;;7.67;100.00
41862;BME280;27537;57.134;-2.136;2023-04-08T06:26:44;101989.88;;;7.43;100.00
41862;BME280;27537;57.134;-2.136;2023-04-08T06:29:11;101985.44;;;7.59;100.00
41862;BME280;27537;57.134;-2.136;2023-04-08T06:31:38;101999.31;;;7.64;100.00
41862;BME280;27537;57.134;-2.136;2023-04-08T06:34:05;102036.53;;;7.95;100.00
41862;BME280;27537;57.134;-2.136;2023-04-08T06:36:31;102018.41;;;7.72;100.00
41862;BME280;27537;57.134;-2.136;2023-04-08T06:38:58;102052.13;;;8.00;100.00
41862;BME280;27537;57.134;-2.136;2023-04-08T06:41:25;102042.75;;;7.70;100.00
41862;BME280;27537;57.134;-2.136;2023-04-08T06:43:52;102034.75;;;8.02;100.00
41862;BME280;27537;57.134;-2.136;2023-04-08T06:46:18;102015.75;;;7.77;100.00
41862;BME280;27537;57.134;-2.136;2023-04-08T06:48:45;102022.78;;;7.69;100.00
41862;BME280;27537;57.134;-2.136;2023-04-08T06:51:12;102046.97;;;7.91;100.00
41862;BME280;27537;57.134;-2.136;2023-04-08T06:53:39;102036.53;;;7.91;100.00
41862;BME280;27537;57.134;-2.136;2023-04-08T06:56:05;102056.44;;;8.07;100.00
41862;BME280;27537;57.134;-2.136;2023-04-08T06:58:32;102016.53;;;7.91;100.00
41862;BME280;27537;57.134;-2.136;2023-04-08T07:00:59;102069.59;;;7.87;100.00
41862;BME280;27537;57.134;-2.136;2023-04-08T07:03:28;102014.06;;;7.71;100.00
41862;BME280;27537;57.134;-2.136;2023-04-08T07:05:55;102047.88;;;7.88;100.00
41862;BME280;27537;57.134;-2.136;2023-04-08T07:08:22;102021.94;;;7.62;100.00
41862;BME280;27537;57.134;-2.136;2023-04-08T07:10:51;102047.88;;;7.90;100.00
41862;BME280;27537;57.134;-2.136;2023-04-08T07:13:18;102033.19;;;7.70;100.00
41862;BME280;27537;57.134;-2.136;2023-04-08T07:15:44;102039.16;;;7.89;100.00
41862;BME280;27537;57.134;-2.136;2023-04-08T07:18:11;102018.53;;;7.41;100.00
41862;BME280;27537;57.134;-2.136;2023-04-08T07:20:38;102049.66;;;7.75;100.00
41862;BME280;27537;57.134;-2.136;2023-04-08T07:23:07;102078.19;;;8.08;100.00
41862;BME280;27537;57.134;-2.136;2023-04-08T07:25:34;102065.16;;;8.05;100.00
41862;BME280;27537;57.134;-2.136;2023-04-08T07:28:01;102073.06;;;7.92;100.00
41862;BME280;27537;57.134;-2.136;2023-04-08T07:30:27;102053.97;;;7.86;100.00
41862;BME280;27537;57.134;-2.136;2023-04-08T07:32:54;102018.53;;;7.48;100.00
41862;BME280;27537;57.134;-2.136;2023-04-08T07:35:26;102056.66;;;7.66;100.00
41862;BME280;27537;57.134;-2.136;2023-04-08T07:37:53;102066.19;;;7.74;100.00
41862;BME280;27537;57.134;-2.136;2023-04-08T07:40:20;102035.81;;;7.59;100.00
41862;BME280;27537;57.134;-2.136;2023-04-08T07:42:47;102066.09;;;7.91;100.00
41862;BME280;27537;57.134;-2.136;2023-04-08T07:45:14;102049.63;;;7.83;100.00
41862;BME280;27537;57.134;-2.136;2023-04-08T07:47:41;102035.75;;;7.73;100.00
41862;BME280;27537;57.134;-2.136;2023-04-08T07:50:08;102060.00;;;7.92;100.00
41862;BME280;27537;57.134;-2.136;2023-04-08T07:52:35;102055.69;;;7.90;100.00
41862;BME280;27537;57.134;-2.136;2023-04-08T07:55:02;102038.31;;;7.89;100.00
41862;BME280;27537;57.134;-2.136;2023-04-08T07:57:29;102038.34;;;7.79;100.00
41862;BME280;27537;57.134;-2.136;2023-04-08T07:59:56;102087.78;;;7.98;100.00
41862;BME280;27537;57.134;-2.136;2023-04-08T08:02:23;102052.25;;;7.82;100.00
41862;BME280;27537;57.134;-2.136;2023-04-08T08:04:50;102054.78;;;7.95;100.00
41862;BME280;27537;57.134;-2.136;2023-04-08T08:07:17;102047.00;;;7.88;100.00
41862;BME280;27537;57.134;-2.136;2023-04-08T08:09:43;102072.97;;;8.06;100.00
41862;BME280;27537;57.134;-2.136;2023-04-08T08:12:10;102082.56;;;8.03;100.00
41862;BME280;27537;57.134;-2.136;2023-04-08T08:14:37;102078.25;;;7.97;100.00
41862;BME280;27537;57.134;-2.136;2023-04-08T08:17:04;102070.44;;;7.98;100.00
41862;BME280;27537;57.134;-2.136;2023-04-08T08:19:30;102058.38;;;7.76;100.00
41862;BME280;27537;57.134;-2.136;2023-04-08T08:21:57;102085.31;;;7.76;100.00
41862;BME280;27537;57.134;-2.136;2023-04-08T08:24:24;102109.50;;;8.06;100.00
41862;BME280;27537;57.134;-2.136;2023-04-08T08:26:51;102086.09;;;7.92;100.00
41862;BME280;27537;57.134;-2.136;2023-04-08T08:29:18;102055.72;;;7.84;100.00
41862;BME280;27537;57.134;-2.136;2023-04-08T08:31:45;102093.00;;;8.03;100.00
41862;BME280;27537;57.134;-2.136;2023-04-08T08:34:14;102119.81;;;8.28;100.00
41862;BME280;27537;57.134;-2.136;2023-04-08T08:36:42;102075.66;;;7.98;100.00
41862;BME280;27537;57.134;-2.136;2023-04-08T08:39:08;102136.31;;;8.33;100.00
41862;BME280;27537;57.134;-2.136;2023-04-08T08:41:35;102084.25;;;8.11;100.00
41862;BME280;27537;57.134;-2.136;2023-04-08T08:44:06;102124.94;;;8.48;100.00
41862;BME280;27537;57.134;-2.136;2023-04-08T08:46:34;102109.31;;;8.40;100.00
41862;BME280;27537;57.134;-2.136;2023-04-08T08:49:01;102086.81;;;8.19;100.00
41862;BME280;27537;57.134;-2.136;2023-04-08T08:51:28;102096.31;;;8.28;100.00
41862;BME280;27537;57.134;-2.136;2023-04-08T08:53:55;102114.53;;;8.40;100.00
41862;BME280;27537;57.134;-2.136;2023-04-08T08:56:22;102073.63;;;8.50;100.00
41862;BME280;27537;57.134;-2.136;2023-04-08T08:58:48;102082.38;;;8.30;100.00
41862;BME280;27537;57.134;-2.136;2023-04-08T09:01:41;102139.56;;;8.70;100.00
41862;BME280;27537;57.134;-2.136;2023-04-08T09:04:10;102142.19;;;8.69;100.00
41862;BME280;27537;57.134;-2.136;2023-04-08T09:06:38;102155.16;;;8.84;100.00
41862;BME280;27537;57.134;-2.136;2023-04-08T09:09:05;102100.69;;;8.24;100.00
41862;BME280;27537;57.134;-2.136;2023-04-08T09:11:37;102103.31;;;8.27;100.00
41862;BME280;27537;57.134;-2.136;2023-04-08T09:14:21;102150.06;;;8.66;100.00
41862;BME280;27537;57.134;-2.136;2023-04-08T09:16:49;102143.94;;;8.73;100.00
41862;BME280;27537;57.134;-2.136;2023-04-08T09:19:17;102136.78;;;8.93;100.00
41862;BME280;27537;57.134;-2.136;2023-04-08T09:21:44;102130.81;;;8.78;100.00
41862;BME280;27537;57.134;-2.136;2023-04-08T09:24:27;102116.25;;;8.46;100.00
41862;BME280;27537;57.134;-2.136;2023-04-08T09:26:54;102156.28;;;8.35;100.00
41862;BME280;27537;57.134;-2.136;2023-04-08T09:29:25;102113.69;;;8.33;100.00
41862;BME280;27537;57.134;-2.136;2023-04-08T09:31:58;102118.00;;;8.50;100.00
41862;BME280;27537;57.134;-2.136;2023-04-08T09:34:26;102114.28;;;8.80;100.00
41862;BME280;27537;57.134;-2.136;2023-04-08T09:36:54;102151.38;;;9.18;100.00
41862;BME280;27537;57.134;-2.136;2023-04-08T09:39:21;102085.72;;;8.57;100.00
41862;BME280;27537;57.134;-2.136;2023-04-08T09:41:49;102154.94;;;9.09;100.00
41862;BME280;27537;57.134;-2.136;2023-04-08T09:44:18;102119.41;;;8.92;100.00
41862;BME280;27537;57.134;-2.136;2023-04-08T09:52:11;102128.00;;;9.02;100.00
41862;BME280;27537;57.134;-2.136;2023-04-08T09:57:26;102120.91;;;9.13;100.00
41862;BME280;27537;57.134;-2.136;2023-04-08T10:00:01;102115.06;;;8.87;100.00
41862;BME280;27537;57.134;-2.136;2023-04-08T10:02:35;102146.31;;;9.01;100.00
41862;BME280;27537;57.134;-2.136;2023-04-08T10:05:06;102089.75;;;8.95;100.00
41862;BME280;27537;57.134;-2.136;2023-04-08T10:07:34;102118.34;;;9.10;100.00
41862;BME280;27537;57.134;-2.136;2023-04-08T10:10:01;102097.50;;;9.04;100.00
41862;BME280;27537;57.134;-2.136;2023-04-08T10:12:29;102074.75;;;9.17;100.00
41862;BME280;27537;57.134;-2.136;2023-04-08T10:17:49;102111.50;;;8.97;100.00
41862;BME280;27537;57.134;-2.136;2023-04-08T10:23:06;102141.69;;;9.30;100.00
41862;BME280;27537;57.134;-2.136;2023-04-08T10:25:42;102141.59;;;9.40;100.00
41862;BME280;27537;57.134;-2.136;2023-04-08T10:30:41;102117.53;;;9.05;100.00
41862;BME280;27537;57.134;-2.136;2023-04-08T10:35:41;102134.09;;;9.03;100.00
41862;BME280;27537;57.134;-2.136;2023-04-08T10:38:08;102135.16;;;8.80;100.00
41862;BME280;27537;57.134;-2.136;2023-04-08T10:40:36;102075.44;;;8.29;100.00
41862;BME280;27537;57.134;-2.136;2023-04-08T10:43:09;102109.19;;;8.60;100.00
41862;BME280;27537;57.134;-2.136;2023-04-08T10:45:37;102123.13;;;9.54;100.00
41862;BME280;27537;57.134;-2.136;2023-04-08T10:48:11;102141.56;;;9.43;100.00
41862;BME280;27537;57.134;-2.136;2023-04-08T10:50:39;102109.69;;;9.07;100.00
41862;BME280;27537;57.134;-2.136;2023-04-08T10:53:06;102078.50;;;8.88;100.00
41862;BME280;27537;57.134;-2.136;2023-04-08T10:55:34;102102.78;;;8.98;100.00
41862;BME280;27537;57.134;-2.136;2023-04-08T10:58:07;102123.41;;;9.26;100.00
41862;BME280;27537;57.134;-2.136;2023-04-08T11:00:36;102129.66;;;9.14;100.00
41862;BME280;27537;57.134;-2.136;2023-04-08T11:03:05;102111.25;;;9.25;100.00
41862;BME280;27537;57.134;-2.136;2023-04-08T11:05:34;102132.81;;;9.45;100.00
41862;BME280;27537;57.134;-2.136;2023-04-08T11:08:02;102050.75;;;8.77;100.00
41862;BME280;27537;57.134;-2.136;2023-04-08T11:10:29;102083.69;;;8.90;100.00
41862;BME280;27537;57.134;-2.136;2023-04-08T11:12:57;102090.66;;;8.92;100.00
41862;BME280;27537;57.134;-2.136;2023-04-08T11:15:24;102120.53;;;9.52;100.00
41862;BME280;27537;57.134;-2.136;2023-04-08T11:17:52;102111.13;;;9.36;100.00
41862;BME280;27537;57.134;-2.136;2023-04-08T11:20:20;102106.09;;;9.17;100.00
41862;BME280;27537;57.134;-2.136;2023-04-08T11:22:48;102081.56;;;9.29;100.00
41862;BME280;27537;57.134;-2.136;2023-04-08T11:25:15;102100.44;;;9.56;100.00
41862;BME280;27537;57.134;-2.136;2023-04-08T11:27:42;102071.31;;;9.88;100.00
41862;BME280;27537;57.134;-2.136;2023-04-08T11:30:10;102064.09;;;9.32;100.00
41862;BME280;27537;57.134;-2.136;2023-04-08T11:32:37;102087.63;;;9.34;100.00
41862;BME280;27537;57.134;-2.136;2023-04-08T11:35:06;102098.53;;;9.72;100.00
41862;BME280;27537;57.134;-2.136;2023-04-08T11:37:40;102108.25;;;9.62;100.00
41862;BME280;27537;57.134;-2.136;2023-04-08T11:40:10;102106.63;;;9.48;100.00
41862;BME280;27537;57.134;-2.136;2023-04-08T11:42:38;102089.91;;;9.63;100.00
41862;BME280;27537;57.134;-2.136;2023-04-08T11:45:13;102121.84;;;9.92;100.00
41862;BME280;27537;57.134;-2.136;2023-04-08T11:47:41;102127.38;;;9.65;100.00
41862;BME280;27537;57.134;-2.136;2023-04-08T11:50:08;102075.94;;;9.64;100.00
41862;BME280;27537;57.134;-2.136;2023-04-08T11:55:09;102098.50;;;9.75;100.00
41862;BME280;27537;57.134;-2.136;2023-04-08T11:57:38;102062.31;;;9.38;100.00
41862;BME280;27537;57.134;-2.136;2023-04-08T12:00:05;102036.94;;;9.47;100.00
41862;BME280;27537;57.134;-2.136;2023-04-08T12:02:33;102040.19;;;9.65;100.00
41862;BME280;27537;57.134;-2.136;2023-04-08T12:04:59;102087.25;;;10.30;100.00
41862;BME280;27537;57.134;-2.136;2023-04-08T12:07:27;102095.59;;;9.96;100.00
41862;BME280;27537;57.134;-2.136;2023-04-08T12:09:53;102107.84;;;9.94;100.00
41862;BME280;27537;57.134;-2.136;2023-04-08T12:12:21;102103.53;;;9.92;100.00
41862;BME280;27537;57.134;-2.136;2023-04-08T12:14:47;102092.97;;;9.98;100.00
41862;BME280;27537;57.134;-2.136;2023-04-08T12:17:14;102034.03;;;9.71;100.00
41862;BME280;27537;57.134;-2.136;2023-04-08T12:19:41;102074.84;;;9.81;100.00
41862;BME280;27537;57.134;-2.136;2023-04-08T12:22:08;102064.53;;;9.70;100.00
41862;BME280;27537;57.134;-2.136;2023-04-08T12:24:35;102053.47;;;9.51;100.00
41862;BME280;27537;57.134;-2.136;2023-04-08T12:27:02;102071.09;;;10.00;100.00
41862;BME280;27537;57.134;-2.136;2023-04-08T12:29:30;102101.13;;;9.73;100.00
41862;BME280;27537;57.134;-2.136;2023-04-08T12:31:57;102095.63;;;9.93;100.00
41862;BME280;27537;57.134;-2.136;2023-04-08T12:34:25;102067.72;;;9.94;100.00
41862;BME280;27537;57.134;-2.136;2023-04-08T12:36:51;102066.00;;;9.93;100.00
41862;BME280;27537;57.134;-2.136;2023-04-08T12:39:18;102079.81;;;10.04;100.00
41862;BME280;27537;57.134;-2.136;2023-04-08T12:41:45;102055.31;;;9.40;100.00
41862;BME280;27537;57.134;-2.136;2023-04-08T12:44:12;102077.41;;;9.87;100.00
41862;BME280;27537;57.134;-2.136;2023-04-08T12:46:42;102054.69;;;9.89;100.00
41862;BME280;27537;57.134;-2.136;2023-04-08T12:49:09;102065.59;;;9.55;100.00
41862;BME280;27537;57.134;-2.136;2023-04-08T12:51:35;102056.16;;;9.42;100.00
41862;BME280;27537;57.134;-2.136;2023-04-08T12:54:03;102062.19;;;9.47;100.00
41862;BME280;27537;57.134;-2.136;2023-04-08T12:56:30;102110.88;;;9.59;100.00
41862;BME280;27537;57.134;-2.136;2023-04-08T12:58:58;102061.31;;;9.49;100.00
41862;BME280;27537;57.134;-2.136;2023-04-08T13:01:25;102077.13;;;9.39;100.00
41862;BME280;27537;57.134;-2.136;2023-04-08T13:03:52;102069.00;;;9.63;100.00
41862;BME280;27537;57.134;-2.136;2023-04-08T13:06:20;102087.31;;;9.62;100.00
41862;BME280;27537;57.134;-2.136;2023-04-08T13:08:46;102096.44;;;9.98;100.00